La Center, Washington
Current Conditions -  °F | °C
As of 7:27 PM on Monday 26 Jan 2015 (Local Time) from KSPB Reporting Station
Haze Haze  
Wind Chill: 41°   Ceiling: Unl
Heat Index: 41°   Visibility: 1.7mi
Dew Point: 40°   Wind: 0mph
Humidity: 96%   Direction: NA
Pressure: 29.97"   Gusts: NA
Location:  45.86°N, 122.67°W
Report Text: KSPB 270327Z AUTO 00000KT 1 3/4SM BR CLR 05/04 A2997 RMK AO2 T00500044
Loading
Personal Weather Stations






























Interactive Weather Map New forecast layout! Learn more

10-Day Weather Forecast

Advertisements
Track Severe Weather on mobile